Time;durP1;ratioP1;P1;durP2;ratioP2;P2;SDS_P1;SDS_P2;PMS_P1;PMS_P2;Temp;Humidity;BMP_temperature;BMP_pressure;BME280_temperature;BME280_humidity;BME280_pressure;Samples;Min_cycle;Max_cycle;Signal;HPM_P1;HPM_P2
2022/12/23 00:01:01;;;;;;;112.00;51.23;;;;;;;2.38;100.00;99643.13;1832350;76;22376;-89
2022/12/23 00:03:29;;;;;;;114.72;50.95;;;;;;;3.51;100.00;99639.41;1776765;78;21030;-87
2022/12/23 00:05:56;;;;;;;103.92;45.95;;;;;;;4.12;100.00;99645.32;1757687;78;21201;-86
2022/12/23 00:08:24;;;;;;;99.45;45.23;;;;;;;4.25;100.00;99644.17;1734040;80;21040;-86
2022/12/23 00:10:53;;;;;;;94.47;41.33;;;;;;;4.76;100.00;99637.52;1766204;78;21045;-87
2022/12/23 00:16:09;;;;;;;86.08;38.42;;;;;;;5.26;100.00;99638.13;1758782;78;21170;-91
2022/12/23 00:18:36;;;;;;;;;;;;;;;4.96;100.00;99629.24;1776436;78;21247;-89
2022/12/23 00:21:05;;;;;;;97.62;41.53;;;;;;;4.82;100.00;99621.72;1777870;80;20204;-91
2022/12/23 00:23:34;;;;;;;83.25;37.88;;;;;;;4.74;100.00;99627.56;1778118;79;20961;-90
2022/12/23 00:26:01;;;;;;;85.83;38.67;;;;;;;4.81;100.00;99617.41;1775118;78;21123;-88
2022/12/23 00:28:27;;;;;;;78.62;37.15;;;;;;;4.94;100.00;99619.28;1776753;78;21092;-91
2022/12/23 00:31:02;;;;;;;73.15;35.48;;;;;;;4.91;100.00;99614.59;1761500;78;21043;-91
2022/12/23 00:33:31;;;;;;;84.55;38.73;;;;;;;4.81;100.00;99608.27;1776001;78;21032;-89
2022/12/23 00:35:57;;;;;;;84.00;38.70;;;;;;;5.00;100.00;99606.11;1776544;78;21001;-88
2022/12/23 00:44:01;;;;;;;80.05;36.68;;;;;;;5.39;100.00;99597.39;1769422;78;21222;-89
2022/12/23 00:46:27;;;;;;;76.10;35.65;;;;;;;5.09;100.00;99603.74;1760232;78;21056;-89
2022/12/23 00:51:40;;;;;;;70.40;34.15;;;;;;;5.50;100.00;99595.38;1773901;80;21078;-90
2022/12/23 00:54:06;;;;;;;68.87;33.33;;;;;;;5.41;100.00;99596.45;1770983;79;21555;-91
2022/12/23 00:56:33;;;;;;;76.30;36.00;;;;;;;5.35;100.00;99597.04;1762025;79;21064;-89
2022/12/23 00:59:00;;;;;;;72.85;34.58;;;;;;;4.94;100.00;99601.02;1751804;80;21575;-89
2022/12/23 01:07:01;;;;;;;71.82;33.48;;;;;;;5.15;100.00;99586.61;1778010;78;20967;-90
2022/12/23 01:09:27;;;;;;;62.33;31.10;;;;;;;5.30;100.00;99588.47;1777601;80;21104;-91
2022/12/23 01:11:54;;;;;;;69.15;31.87;;;;;;;5.52;100.00;99588.78;1776554;80;21064;-91
2022/12/23 01:14:20;;;;;;;70.37;33.78;;;;;;;5.47;100.00;99592.81;1776965;80;21095;-89
2022/12/23 01:16:47;;;;;;;67.27;34.05;;;;;;;5.47;100.00;99582.37;1776066;78;21037;-91
2022/12/23 01:19:13;;;;;;;82.37;41.48;;;;;;;5.51;100.00;99586.62;1760805;79;21099;-91
2022/12/23 01:21:40;;;;;;;83.12;40.28;;;;;;;5.26;100.00;99587.22;1753545;78;21261;-92
2022/12/23 01:24:06;;;;;;;69.77;36.48;;;;;;;5.18;100.00;99581.80;1754755;78;21560;-90
2022/12/23 01:26:34;;;;;;;66.65;32.33;;;;;;;5.23;100.00;99588.61;1775863;80;20985;-89
2022/12/23 01:29:00;;;;;;;69.27;31.87;;;;;;;5.01;100.00;99590.84;1765228;80;21034;-90
2022/12/23 01:31:27;;;;;;;63.40;30.15;;;;;;;5.22;100.00;99593.44;1764875;81;21014;-89
2022/12/23 01:33:56;;;;;;;68.85;31.45;;;;;;;5.10;100.00;99587.17;1761959;80;21103;-92
2022/12/23 01:36:23;;;;;;;66.42;33.15;;;;;;;5.11;100.00;99587.60;1767596;80;21033;-90
2022/12/23 01:38:49;;;;;;;68.87;32.25;;;;;;;4.94;100.00;99591.03;1764381;80;21587;-91
2022/12/23 01:44:47;;;;;;;63.80;31.20;;;;;;;5.16;100.00;99586.19;1764217;79;21144;-90
2022/12/23 01:47:39;;;;;;;67.27;31.87;;;;;;;5.36;100.00;99580.05;1763215;80;21162;-90
2022/12/23 01:50:11;;;;;;;72.17;35.05;;;;;;;5.16;100.00;99581.81;1771497;80;21632;-88
2022/12/23 01:52:49;;;;;;;71.35;34.18;;;;;;;5.07;100.00;99578.12;1771056;79;21198;-88
2022/12/23 01:55:18;;;;;;;71.82;34.10;;;;;;;4.91;100.00;99578.06;1740912;82;21046;-87
2022/12/23 01:57:44;;;;;;;68.62;32.38;;;;;;;4.80;100.00;99570.02;1721741;81;21050;-89
2022/12/23 02:05:44;;;;;;;62.88;31.42;;;;;;;5.44;100.00;99566.78;1773344;78;21049;-90
2022/12/23 02:11:22;;;;;;;66.22;32.70;;;;;;;5.09;100.00;99571.11;1771688;78;20964;-90
2022/12/23 02:17:11;;;;;;;62.43;30.52;;;;;;;5.41;100.00;99565.56;1771660;79;21454;-91
2022/12/23 02:20:26;;;;;;;74.05;34.65;;;;;;;5.31;100.00;99572.75;1776741;80;21026;-89
2022/12/23 02:23:19;;;;;;;67.12;33.63;;;;;;;5.42;100.00;99565.96;1771117;78;21044;-89
2022/12/23 02:26:17;;;;;;;61.83;31.30;;;;;;;5.25;100.00;99567.70;1776769;80;21004;-89
2022/12/23 02:29:07;;;;;;;67.65;34.55;;;;;;;5.31;100.00;99570.59;1759065;78;21824;-87
2022/12/23 02:31:51;;;;;;;66.80;33.55;;;;;;;5.76;100.00;99569.03;1761013;81;21118;-90
2022/12/23 02:34:24;;;;;;;66.67;34.03;;;;;;;5.63;100.00;99568.02;1758469;78;21107;-89
2022/12/23 02:37:10;;;;;;;66.70;33.85;;;;;;;5.54;100.00;99564.34;1723419;80;21331;-90
2022/12/23 02:40:05;;;;;;;65.83;33.33;;;;;;;5.55;100.00;99564.77;1772323;80;21040;-90
2022/12/23 02:42:36;;;;;;;75.30;35.85;;;;;;;5.84;100.00;99557.91;1776740;78;21268;-90
2022/12/23 02:45:29;;;;;;;71.07;37.48;;;;;;;5.75;100.00;99552.92;1776786;80;21516;-91
2022/12/23 02:48:13;;;;;;;74.00;37.42;;;;;;;5.91;100.00;99554.22;1776873;80;21357;-90
2022/12/23 02:50:40;;;;;;;;;;;;;;;5.77;100.00;99547.21;1774573;80;20989;-88
2022/12/23 02:53:27;;;;;;;71.62;35.85;;;;;;;5.54;100.00;99549.97;1760931;78;20264;-90
2022/12/23 02:55:54;;;;;;;79.58;39.03;;;;;;;5.46;100.00;99551.94;1752135;78;21249;-90
2022/12/23 02:58:25;;;;;;;74.67;35.95;;;;;;;5.33;100.00;99550.52;1758173;78;21099;-89
2022/12/23 03:00:52;;;;;;;80.17;40.90;;;;;;;5.41;100.00;99548.14;1769515;78;20957;-90
2022/12/23 03:03:20;;;;;;;85.57;42.15;;;;;;;5.24;100.00;99545.95;1759703;78;21045;-89
2022/12/23 03:05:47;;;;;;;74.82;38.53;;;;;;;5.64;100.00;99544.94;1771677;78;21088;-89
2022/12/23 03:08:25;;;;;;;75.08;37.80;;;;;;;5.44;100.00;99541.98;1776267;79;21125;-89
2022/12/23 03:11:09;;;;;;;76.50;37.93;;;;;;;5.43;100.00;99541.58;1756514;78;21017;-88
2022/12/23 03:13:48;;;;;;;73.20;34.50;;;;;;;5.41;100.00;99545.98;1743818;78;20957;-89
2022/12/23 03:16:29;;;;;;;64.77;33.63;;;;;;;5.56;100.00;99546.88;1737985;78;20961;-88
2022/12/23 03:19:26;;;;;;;74.45;32.48;;;;;;;5.45;100.00;99545.86;1761071;81;21567;-89
2022/12/23 03:22:10;;;;;;;70.50;33.50;;;;;;;5.13;100.00;99544.05;1760651;78;21122;-88
2022/12/23 03:25:04;;;;;;;69.17;33.33;;;;;;;4.61;100.00;99542.64;1752767;78;22345;-90
2022/12/23 03:27:44;;;;;;;69.27;33.38;;;;;;;4.75;100.00;99545.79;1759766;78;21012;-90
2022/12/23 03:30:15;;;;;;;66.30;32.05;;;;;;;4.92;100.00;99536.27;1746598;82;21071;-90
2022/12/23 03:32:52;;;;;;;61.92;32.20;;;;;;;5.10;100.00;99540.19;1683425;81;21116;-88
2022/12/23 03:35:23;;;;;;;74.12;36.75;;;;;;;5.28;100.00;99541.95;1724992;80;21805;-89
2022/12/23 03:37:52;;;;;;;65.87;34.15;;;;;;;5.18;100.00;99544.80;1740168;80;20992;-89
2022/12/23 03:40:26;;;;;;;68.57;34.33;;;;;;;5.48;100.00;99539.70;1710047;83;21080;-90
2022/12/23 03:42:58;;;;;;;70.40;34.85;;;;;;;5.51;100.00;99537.45;1689801;83;22040;-89
2022/12/23 03:45:32;;;;;;;54.03;28.32;;;;;;;5.76;100.00;99535.06;1720193;81;21342;-90
2022/12/23 03:48:08;;;;;;;68.07;34.40;;;;;;;5.35;100.00;99535.68;1720537;80;21209;-90
2022/12/23 03:50:35;;;;;;;73.17;34.43;;;;;;;5.46;100.00;99534.51;1745382;82;21040;-91
2022/12/23 03:53:13;;;;;;;69.75;35.30;;;;;;;5.32;100.00;99533.16;1705299;81;21130;-90
2022/12/23 03:55:53;;;;;;;88.30;42.03;;;;;;;5.26;100.00;99539.38;1712967;83;20989;-90
2022/12/23 03:58:37;;;;;;;76.80;35.08;;;;;;;5.05;100.00;99540.76;1726113;80;21548;-91
2022/12/23 04:01:12;;;;;;;71.90;33.53;;;;;;;5.15;100.00;99540.08;1735669;81;21943;-91
2022/12/23 04:03:56;;;;;;;76.10;37.42;;;;;;;5.32;100.00;99546.22;1749723;80;21127;-88
2022/12/23 04:06:23;;;;;;;80.25;37.90;;;;;;;4.96;100.00;99548.80;1746243;79;21048;-90
2022/12/23 04:08:50;;;;;;;76.62;35.15;;;;;;;4.91;100.00;99551.97;1759288;78;21040;-89
2022/12/23 04:11:16;;;;;;;85.32;41.42;;;;;;;5.05;100.00;99549.44;1723254;81;21108;-89
2022/12/23 04:13:45;;;;;;;83.72;40.63;;;;;;;4.60;100.00;99545.70;1766316;78;21152;-90
2022/12/23 04:16:11;;;;;;;89.32;42.15;;;;;;;4.95;100.00;99552.32;1699706;80;21095;-91
2022/12/23 04:18:37;;;;;;;101.00;44.08;;;;;;;4.78;100.00;99560.06;1738494;80;21670;-90
2022/12/23 04:21:05;;;;;;;91.70;43.95;;;;;;;4.82;100.00;99560.41;1716195;80;21029;-89
2022/12/23 04:23:34;;;;;;;86.40;41.55;;;;;;;4.94;100.00;99549.28;1710158;80;21064;-90
2022/12/23 04:26:01;;;;;;;73.37;33.73;;;;;;;5.21;100.00;99552.54;1722470;80;21212;-90
2022/12/23 04:28:27;;;;;;;77.60;38.08;;;;;;;5.06;100.00;99552.89;1740077;80;21487;-90
2022/12/23 04:30:54;;;;;;;86.85;38.92;;;;;;;5.49;100.00;99548.39;1733550;80;21010;-91
2022/12/23 04:33:20;;;;;;;90.47;38.88;;;;;;;5.61;100.00;99538.50;1764088;78;20977;-90
2022/12/23 04:35:47;;;;;;;81.53;37.30;;;;;;;5.49;100.00;99550.55;1740407;82;21096;-88
2022/12/23 04:38:13;;;;;;;80.50;39.75;;;;;;;5.66;100.00;99553.59;1735080;80;21263;-89
2022/12/23 04:40:40;;;;;;;68.05;35.03;;;;;;;5.90;100.00;99547.30;1731153;80;21037;-88
2022/12/23 04:43:06;;;;;;;75.17;34.65;;;;;;;5.70;100.00;99547.82;1710362;79;21005;-88
2022/12/23 04:45:33;;;;;;;72.00;34.85;;;;;;;6.06;100.00;99547.31;1738473;80;21298;-89
2022/12/23 04:48:00;;;;;;;80.85;34.40;;;;;;;5.87;100.00;99540.41;1735403;80;21093;-90
2022/12/23 04:50:27;;;;;;;73.65;34.08;;;;;;;5.97;100.00;99549.33;1729362;80;21105;-89
2022/12/23 04:52:53;;;;;;;82.20;38.35;;;;;;;5.97;100.00;99551.48;1741061;82;21117;-89
2022/12/23 04:55:20;;;;;;;88.97;41.02;;;;;;;6.21;100.00;99547.77;1735175;80;21037;-90
2022/12/23 04:57:46;;;;;;;89.15;42.53;;;;;;;5.81;100.00;99548.85;1728107;80;21097;-90
2022/12/23 05:00:14;;;;;;;89.22;42.53;;;;;;;5.60;100.00;99555.05;1713556;80;21057;-90
2022/12/23 05:02:42;;;;;;;89.17;41.15;;;;;;;5.91;100.00;99562.06;1769097;80;21100;-90
2022/12/23 05:05:09;;;;;;;70.67;35.15;;;;;;;6.02;100.00;99562.66;1740748;82;20994;-89
2022/12/23 05:07:35;;;;;;;85.38;37.08;;;;;;;5.81;100.00;99578.91;1739940;82;21657;-90
2022/12/23 05:10:03;;;;;;;77.50;34.73;;;;;;;5.49;100.00;99581.89;1739752;80;21120;-90
2022/12/23 05:12:30;;;;;;;87.45;39.85;;;;;;;5.37;100.00;99575.67;1739458;82;21026;-91
2022/12/23 05:15:00;;;;;;;89.17;40.08;;;;;;;5.70;100.00;99560.88;1713340;80;21247;-89
2022/12/23 05:17:26;;;;;;;76.57;37.85;;;;;;;5.68;100.00;99579.23;1758254;78;21025;-90
2022/12/23 05:19:52;;;;;;;84.70;39.78;;;;;;;5.82;100.00;99578.88;1736257;80;21665;-91
2022/12/23 05:22:20;;;;;;;84.13;39.08;;;;;;;5.68;100.00;99581.84;1736183;80;20990;-91
2022/12/23 05:24:46;;;;;;;86.35;40.03;;;;;;;5.55;100.00;99576.52;1742430;80;21048;-91
2022/12/23 05:27:13;;;;;;;93.75;42.13;;;;;;;5.55;100.00;99564.77;1722493;80;21271;-89
2022/12/23 05:29:41;;;;;;;89.47;41.88;;;;;;;5.48;100.00;99576.27;1694502;81;20960;-89
2022/12/23 05:32:09;;;;;;;85.55;41.08;;;;;;;5.51;100.00;99563.12;1716089;80;21029;-90
2022/12/23 05:34:35;;;;;;;84.85;36.08;;;;;;;5.47;100.00;99556.25;1719501;83;21048;-89
2022/12/23 05:37:02;;;;;;;92.53;43.73;;;;;;;5.22;100.00;99568.63;1713555;83;21151;-90
2022/12/23 05:39:30;;;;;;;99.20;44.93;;;;;;;5.48;100.00;99563.20;1716939;83;21151;-90
2022/12/23 05:41:56;;;;;;;79.92;34.25;;;;;;;5.32;100.00;99567.10;1714745;83;21164;-91
2022/12/23 05:44:23;;;;;;;89.62;41.53;;;;;;;5.01;100.00;99571.73;1716074;83;21628;-89
2022/12/23 05:46:54;;;;;;;89.37;44.27;;;;;;;5.51;100.00;99575.33;1712440;82;21047;-92
2022/12/23 05:49:25;;;;;;;94.97;43.68;;;;;;;5.32;100.00;99561.88;1718218;83;21328;-91
2022/12/23 10:51:21;;;;;;;65.12;39.30;;;;;;;9.15;66.44;99496.07;1847635;76;28032;-66
2022/12/23 10:53:59;;;;;;;68.20;37.33;;;;;;;8.99;66.81;99495.84;1807333;79;21079;-67
2022/12/23 10:56:28;;;;;;;64.65;35.05;;;;;;;9.16;66.43;99495.17;1806924;79;21254;-66
2022/12/23 10:58:57;;;;;;;79.90;44.27;;;;;;;8.64;67.57;99483.29;1807128;79;21028;-65
2022/12/23 11:01:24;;;;;;;85.25;46.20;;;;;;;8.47;68.36;99476.09;1807015;79;21024;-66
2022/12/23 11:04:15;;;;;;;81.08;45.38;;;;;;;8.30;69.55;99485.86;1806810;79;21014;-66
2022/12/23 11:06:49;;;;;;;;;;;;;;;8.35;69.37;99478.66;1809937;79;21028;-67
2022/12/23 11:09:24;;;;;;;79.10;41.30;;;;;;;8.39;69.24;99476.33;1806963;79;21128;-67
2022/12/23 11:12:05;;;;;;;76.35;40.52;;;;;;;8.41;68.71;99482.41;1806748;79;21006;-67
2022/12/23 11:14:40;;;;;;;77.22;41.77;;;;;;;8.19;69.76;99467.46;1807438;79;20991;-66
2022/12/23 11:17:27;;;;;;;77.97;42.95;;;;;;;8.33;69.77;99471.34;1806920;79;21032;-67
2022/12/23 11:20:15;;;;;;;84.13;43.08;;;;;;;8.60;69.42;99470.30;1807492;78;21020;-66
2022/12/23 11:23:03;;;;;;;87.30;45.80;;;;;;;9.01;67.08;99467.75;1807191;79;21071;-67
2022/12/23 11:25:43;;;;;;;77.42;41.70;;;;;;;9.51;65.47;99468.33;1806891;79;21028;-67
2022/12/23 11:28:14;;;;;;;89.97;45.35;;;;;;;9.65;64.12;99474.68;1804573;79;21056;-67
2022/12/23 11:30:51;;;;;;;79.42;40.78;;;;;;;9.92;63.28;99478.81;1840678;78;21084;-67
2022/12/23 11:33:34;;;;;;;87.15;43.10;;;;;;;9.21;65.73;99479.22;1840620;78;21010;-66
2022/12/23 11:36:15;;;;;;;95.65;47.40;;;;;;;9.02;65.94;99472.56;1839830;78;22213;-66
2022/12/23 11:38:55;;;;;;;90.50;44.42;;;;;;;8.69;66.72;99477.39;1827622;78;21029;-67
2022/12/23 11:41:37;;;;;;;76.70;42.33;;;;;;;8.98;66.02;99475.77;1837864;78;21571;-66
2022/12/23 11:44:13;;;;;;;88.55;46.60;;;;;;;8.75;66.87;99481.09;1803202;79;21035;-66
2022/12/23 11:46:39;;;;;;;85.32;44.10;;;;;;;9.04;66.88;99478.58;1819862;78;21040;-66
2022/12/23 11:49:18;;;;;;;78.28;41.25;;;;;;;9.78;65.50;99468.91;1767360;81;21372;-67
2022/12/23 11:51:49;;;;;;;82.57;42.93;;;;;;;10.28;64.03;99477.17;1814294;79;20966;-66
2022/12/23 11:54:19;;;;;;;86.25;44.15;;;;;;;11.22;60.44;99480.55;1811151;78;21079;-66
2022/12/23 11:56:50;;;;;;;72.37;39.47;;;;;;;11.40;57.98;99492.43;1787117;79;22159;-67
2022/12/23 11:59:39;;;;;;;94.97;46.88;;;;;;;11.60;58.60;99482.20;1766716;81;21048;-66
2022/12/23 12:02:20;;;;;;;88.78;44.38;;;;;;;10.98;58.61;99480.47;1765218;81;21152;-65
2022/12/23 12:05:05;;;;;;;;;;;;;;;10.57;59.89;99486.78;1779499;80;22231;-67
2022/12/23 12:07:34;;;;;;;89.22;45.67;;;;;;;10.08;61.18;99500.40;1814677;78;20142;-67
2022/12/23 13:08:21;;;;;;;90.50;47.83;;;;;;;7.66;79.17;99546.30;1797474;78;29061;-67
2022/12/23 13:11:17;;;;;;;92.57;48.92;;;;;;;7.91;77.04;99552.85;1771434;81;21066;-65
2022/12/23 13:14:15;;;;;;;85.70;44.10;;;;;;;8.28;74.73;99547.59;1763362;80;21127;-66
2022/12/23 13:17:05;;;;;;;89.77;45.08;;;;;;;7.69;75.55;99546.18;1770991;81;21091;-66
2022/12/23 13:19:42;;;;;;;97.02;48.65;;;;;;;7.80;75.38;99545.81;1771415;80;21067;-66
2022/12/23 13:22:15;;;;;;;105.30;48.33;;;;;;;7.82;74.91;99540.50;1765354;80;21045;-66
2022/12/23 13:24:59;;;;;;;105.40;51.83;;;;;;;7.77;74.74;99533.64;1770943;80;21083;-67
2022/12/23 13:27:33;;;;;;;124.97;54.05;;;;;;;7.83;74.22;99534.36;1759001;81;21150;-67
2022/12/23 13:30:16;;;;;;;131.20;59.38;;;;;;;7.78;74.13;99536.69;1759141;81;21032;-66
2022/12/23 13:33:06;;;;;;;112.60;51.65;;;;;;;7.50;75.02;99534.59;1770541;81;21552;-67
2022/12/23 13:36:04;;;;;;;101.42;49.38;;;;;;;7.51;75.85;99537.17;1770975;81;21052;-66
2022/12/23 13:38:51;;;;;;;89.17;44.08;;;;;;;7.52;75.54;99540.64;1770437;81;21119;-65
2022/12/23 13:41:32;;;;;;;98.90;45.03;;;;;;;7.70;75.34;99537.39;1770540;81;21130;-68
2022/12/23 13:44:01;;;;;;;108.67;51.75;;;;;;;7.77;74.74;99532.33;1770508;81;21083;-67
2022/12/23 13:46:51;;;;;;;110.72;54.48;;;;;;;7.67;74.12;99532.27;1771065;81;21103;-67
2022/12/23 13:49:48;;;;;;;112.30;51.75;;;;;;;7.72;73.99;99532.95;1770666;81;21099;-66
2022/12/23 13:52:54;;;;;;;113.10;50.48;;;;;;;7.65;74.02;99526.69;1771030;80;21103;-66
2022/12/23 13:55:47;;;;;;;117.37;51.73;;;;;;;7.56;74.84;99520.83;1770718;81;21896;-66
2022/12/23 13:58:21;;;;;;;111.42;53.00;;;;;;;7.41;75.54;99516.56;1770744;80;20999;-67
2022/12/23 14:01:11;;;;;;;124.35;60.78;;;;;;;7.46;74.92;99531.70;1770753;80;21090;-66
2022/12/23 16:50:21;;;;;;;144.03;68.37;;;;;;;5.01;100.00;99552.16;1805050;79;22616;-66
2022/12/23 16:52:47;;;;;;;147.55;67.32;;;;;;;4.69;100.00;99556.35;1782416;80;21048;-66
2022/12/23 16:55:16;;;;;;;149.00;66.62;;;;;;;4.86;100.00;99553.38;1745865;81;21238;-66
2022/12/23 16:57:43;;;;;;;149.70;65.67;;;;;;;5.33;100.00;99551.37;1757667;81;21517;-67
2022/12/23 17:00:14;;;;;;;157.25;68.17;;;;;;;5.06;100.00;99556.81;1746566;80;21045;-67
2022/12/23 17:02:43;;;;;;;154.90;66.30;;;;;;;5.04;100.00;99559.48;1757006;81;21084;-67
2022/12/23 17:05:17;;;;;;;132.32;61.35;;;;;;;5.37;100.00;99554.78;1779411;80;21030;-66
2022/12/23 17:07:44;;;;;;;132.97;62.40;;;;;;;5.18;100.00;99552.63;1778825;80;21141;-65
2022/12/23 17:10:12;;;;;;;148.68;65.95;;;;;;;5.49;100.00;99544.02;1757787;81;20953;-67
2022/12/23 17:12:38;;;;;;;148.90;68.12;;;;;;;5.47;100.00;99551.03;1779233;80;21492;-66
2022/12/23 17:15:05;;;;;;;159.37;71.80;;;;;;;4.89;100.00;99554.61;1756984;81;21103;-65
2022/12/23 17:17:32;;;;;;;166.22;73.57;;;;;;;4.69;100.00;99564.17;1778688;80;21029;-67
2022/12/23 17:19:59;;;;;;;189.15;77.45;;;;;;;4.93;100.00;99558.87;1756887;81;21064;-67
2022/12/23 17:22:25;;;;;;;188.50;76.47;;;;;;;5.33;100.00;99562.27;1778630;80;21063;-67
2022/12/23 17:24:51;;;;;;;160.57;72.25;;;;;;;5.57;100.00;99562.12;1756861;81;21096;-67
2022/12/23 17:27:19;;;;;;;140.92;62.35;;;;;;;5.42;100.00;99558.13;1779005;80;21033;-67
2022/12/23 17:29:46;;;;;;;140.92;66.37;;;;;;;5.51;100.00;99553.98;1756898;81;21144;-66
2022/12/23 17:32:14;;;;;;;136.88;61.50;;;;;;;5.36;100.00;99550.02;1778595;80;21179;-66
2022/12/23 17:34:40;;;;;;;125.62;57.78;;;;;;;5.50;100.00;99549.66;1756987;81;21053;-66
2022/12/23 17:37:16;;;;;;;132.67;61.20;;;;;;;5.60;100.00;99549.83;1778914;80;21243;-66
2022/12/23 17:39:44;;;;;;;138.57;62.23;;;;;;;5.64;100.00;99551.47;1757189;81;21528;-65
2022/12/23 17:42:19;;;;;;;128.97;58.98;;;;;;;5.78;100.00;99548.48;1779242;80;21012;-66
2022/12/23 17:44:46;;;;;;;122.75;54.95;;;;;;;5.94;100.00;99551.58;1790082;80;21111;-66
2022/12/23 17:47:15;;;;;;;148.50;67.97;;;;;;;5.80;100.00;99553.69;1790139;79;21029;-68
2022/12/23 17:49:41;;;;;;;121.05;56.95;;;;;;;6.04;100.00;99546.49;1789728;79;21025;-68
2022/12/23 17:52:18;;;;;;;140.52;64.45;;;;;;;6.11;100.00;99546.33;1789379;80;21002;-68
2022/12/23 17:54:45;;;;;;;138.88;63.48;;;;;;;6.07;100.00;99546.85;1789259;79;21073;-68
2022/12/23 17:57:24;;;;;;;125.35;56.23;;;;;;;6.24;100.00;99543.78;1789723;80;21052;-68
2022/12/23 17:59:52;;;;;;;130.25;59.23;;;;;;;6.39;100.00;99543.31;1789366;79;21075;-67
2022/12/23 18:02:34;;;;;;;137.00;63.35;;;;;;;6.29;100.00;99552.34;1789632;80;21002;-67
2022/12/23 18:05:02;;;;;;;117.65;55.08;;;;;;;6.38;100.00;99556.47;1789622;80;21026;-67
2022/12/23 18:07:28;;;;;;;163.40;75.30;;;;;;;6.42;100.00;99556.75;1789848;80;20963;-67
2022/12/23 18:09:55;;;;;;;152.02;67.47;;;;;;;6.26;100.00;99558.98;1762424;79;21232;-67
2022/12/23 18:12:36;;;;;;;153.35;70.17;;;;;;;6.35;100.00;99561.33;1758291;81;21027;-67
2022/12/23 18:15:04;;;;;;;125.85;56.98;;;;;;;6.48;100.00;99560.51;1758470;81;22064;-67
2022/12/23 18:17:31;;;;;;;156.93;71.37;;;;;;;6.30;100.00;99561.89;1758281;81;21086;-67
2022/12/23 18:19:57;;;;;;;147.10;65.70;;;;;;;6.30;100.00;99556.23;1758335;81;21090;-67
2022/12/23 18:22:25;;;;;;;150.35;66.67;;;;;;;6.36;100.00;99556.50;1758601;81;21200;-67
2022/12/23 18:24:51;;;;;;;133.70;61.80;;;;;;;6.40;100.00;99557.28;1758061;81;21047;-67
2022/12/23 18:27:21;;;;;;;147.53;68.20;;;;;;;6.21;100.00;99565.66;1769978;80;21038;-67
2022/12/23 18:29:48;;;;;;;149.18;64.35;;;;;;;6.46;100.00;99565.77;1789767;80;21034;-67
2022/12/23 18:32:26;;;;;;;126.80;62.83;;;;;;;6.36;100.00;99572.19;1789568;80;20975;-67
2022/12/23 18:34:53;;;;;;;138.95;62.70;;;;;;;6.36;100.00;99572.19;1789508;80;21168;-67
2022/12/23 18:37:20;;;;;;;136.95;61.77;;;;;;;6.50;100.00;99571.33;1789376;80;21018;-67
2022/12/23 18:39:47;;;;;;;157.95;72.40;;;;;;;6.53;100.00;99566.45;1789330;79;21544;-67
2022/12/23 18:42:15;;;;;;;165.30;71.80;;;;;;;6.73;100.00;99566.72;1789560;80;21556;-67
2022/12/23 18:44:43;;;;;;;141.73;65.45;;;;;;;6.60;100.00;99563.20;1789823;80;20987;-67
2022/12/23 18:47:10;;;;;;;151.37;69.12;;;;;;;6.48;100.00;99561.36;1789588;80;21108;-67
2022/12/23 18:49:37;;;;;;;132.65;60.43;;;;;;;6.48;100.00;99556.12;1791916;79;21106;-66
2022/12/23 18:52:06;;;;;;;127.05;58.15;;;;;;;6.55;100.00;99555.95;1795119;79;22129;-67
2022/12/23 18:54:33;;;;;;;129.70;61.53;;;;;;;6.65;100.00;99560.03;1795181;79;21312;-67
2022/12/23 18:57:00;;;;;;;123.65;58.13;;;;;;;6.79;100.00;99560.45;1795110;79;22176;-67
2022/12/23 18:59:27;;;;;;;137.10;61.42;;;;;;;6.72;100.00;99554.55;1795190;79;21215;-68
2022/12/23 19:01:54;;;;;;;125.60;59.85;;;;;;;6.49;100.00;99552.63;1795388;79;21042;-68
2022/12/23 19:04:20;;;;;;;135.50;60.92;;;;;;;6.57;100.00;99559.39;1795129;79;21577;-68
2022/12/23 19:06:47;;;;;;;152.10;68.52;;;;;;;6.61;100.00;99562.33;1795105;79;21046;-66
2022/12/23 19:09:18;;;;;;;119.67;57.40;;;;;;;6.61;100.00;99563.63;1795193;79;21026;-66
2022/12/23 19:11:46;;;;;;;135.43;63.13;;;;;;;6.62;100.00;99560.09;1795408;79;21779;-67
2022/12/23 19:14:12;;;;;;;142.85;66.70;;;;;;;6.64;100.00;99560.91;1795282;79;22194;-67
2022/12/23 19:16:40;;;;;;;137.45;61.65;;;;;;;6.47;100.00;99564.04;1795476;79;21047;-66
2022/12/23 19:19:06;;;;;;;146.77;66.05;;;;;;;6.93;100.00;99566.12;1795256;79;21050;-67
2022/12/23 19:21:35;;;;;;;123.85;58.23;;;;;;;6.27;100.00;99569.38;1795264;79;21089;-67
2022/12/23 19:24:02;;;;;;;139.68;63.00;;;;;;;6.26;100.00;99573.36;1795526;79;21066;-68
2022/12/23 19:26:28;;;;;;;143.02;66.77;;;;;;;6.44;100.00;99574.57;1794008;79;21066;-66
2022/12/23 19:28:55;;;;;;;130.43;58.68;;;;;;;6.43;100.00;99573.72;1763801;81;21046;-66
2022/12/23 19:31:22;;;;;;;140.75;65.42;;;;;;;6.57;100.00;99571.16;1763855;81;21090;-67
2022/12/23 19:33:48;;;;;;;136.25;62.58;;;;;;;6.45;100.00;99567.15;1763977;79;21512;-66
2022/12/23 19:36:18;;;;;;;137.28;61.42;;;;;;;6.58;100.00;99568.94;1763973;81;21095;-67
2022/12/23 19:38:45;;;;;;;139.77;62.55;;;;;;;6.53;100.00;99559.06;1763897;81;21379;-68
2022/12/23 19:41:11;;;;;;;118.65;55.63;;;;;;;6.54;100.00;99562.10;1763760;79;21078;-66
2022/12/23 19:43:38;;;;;;;136.03;61.70;;;;;;;6.53;100.00;99565.61;1763942;81;21011;-67
2022/12/23 19:46:07;;;;;;;134.03;63.75;;;;;;;6.35;100.00;99557.41;1764082;81;21116;-66
2022/12/23 19:48:34;;;;;;;128.45;59.38;;;;;;;5.85;100.00;99559.64;1764039;81;21227;-66
2022/12/23 19:51:09;;;;;;;145.35;63.78;;;;;;;5.90;100.00;99555.14;1763649;80;21030;-67
2022/12/23 19:53:35;;;;;;;148.87;67.42;;;;;;;6.00;100.00;99556.62;1763618;81;21157;-66
2022/12/23 19:56:11;;;;;;;143.13;62.95;;;;;;;6.14;100.00;99552.77;1763728;81;21069;-66
2022/12/23 19:58:40;;;;;;;150.65;67.58;;;;;;;6.27;100.00;99551.53;1764272;81;21514;-66
2022/12/23 20:01:13;;;;;;;154.95;70.32;;;;;;;5.92;100.00;99554.65;1763957;81;21136;-67
2022/12/23 20:03:41;;;;;;;159.67;75.70;;;;;;;6.17;100.00;99557.94;1764199;81;21042;-67
2022/12/23 20:06:16;;;;;;;154.30;70.95;;;;;;;6.15;100.00;99554.50;1763775;81;21030;-67
2022/12/23 20:08:44;;;;;;;143.95;67.30;;;;;;;6.39;100.00;99562.08;1736022;81;21046;-67
2022/12/23 20:11:13;;;;;;;173.28;81.80;;;;;;;6.31;100.00;99563.62;1763763;81;21047;-66
2022/12/23 20:13:39;;;;;;;147.93;71.20;;;;;;;6.32;100.00;99560.09;1764125;81;21941;-67
2022/12/23 20:16:07;;;;;;;138.60;63.68;;;;;;;6.47;100.00;99558.35;1763660;81;21049;-67
2022/12/23 20:18:34;;;;;;;137.32;66.87;;;;;;;6.40;100.00;99558.59;1764060;81;21094;-67
2022/12/23 20:21:01;;;;;;;134.70;63.48;;;;;;;6.58;100.00;99554.55;1763431;81;21022;-67
2022/12/23 20:23:28;;;;;;;147.00;69.95;;;;;;;6.72;100.00;99558.48;1763786;81;21027;-67
2022/12/23 20:25:54;;;;;;;132.25;62.85;;;;;;;6.33;100.00;99557.91;1764026;81;21207;-67
2022/12/23 20:28:21;;;;;;;129.60;61.05;;;;;;;6.49;100.00;99565.70;1762384;81;21043;-67
2022/12/23 20:30:47;;;;;;;149.40;67.75;;;;;;;6.30;100.00;99563.20;1762326;81;21614;-67
2022/12/23 20:33:15;;;;;;;128.62;58.83;;;;;;;6.03;100.00;99556.55;1762180;81;21050;-66
2022/12/23 20:35:42;;;;;;;132.78;59.93;;;;;;;6.22;100.00;99556.04;1762455;81;21046;-66
2022/12/23 20:38:08;;;;;;;140.28;64.70;;;;;;;6.30;100.00;99554.92;1762045;81;22197;-67
2022/12/23 20:40:35;;;;;;;123.70;58.05;;;;;;;6.46;100.00;99549.23;1761937;81;21038;-67
2022/12/23 20:43:02;;;;;;;147.47;67.60;;;;;;;6.46;100.00;99543.54;1762022;81;21046;-66
2022/12/23 20:45:29;;;;;;;125.15;59.33;;;;;;;6.43;100.00;99544.09;1762106;81;21027;-66
2022/12/23 20:47:56;;;;;;;136.75;63.55;;;;;;;6.54;100.00;99544.64;1762583;81;21027;-67
2022/12/23 20:50:22;;;;;;;149.38;69.77;;;;;;;6.57;100.00;99552.84;1762234;80;21298;-67
2022/12/23 20:52:50;;;;;;;134.45;63.83;;;;;;;6.57;100.00;99547.61;1762009;81;21602;-66
2022/12/23 20:55:16;;;;;;;146.02;68.80;;;;;;;6.57;100.00;99547.61;1762098;81;21070;-66